createdAt,value
2022-08-19T00:00:51.921Z,99782.03
2022-08-19T00:03:30.228Z,99785.94
2022-08-19T00:06:06.710Z,99789.00
2022-08-19T00:08:42.859Z,99786.44
2022-08-19T00:11:25.558Z,99786.78
2022-08-19T00:14:00.894Z,99795.13
2022-08-19T00:16:37.278Z,99802.47
2022-08-19T00:19:11.260Z,99799.91
2022-08-19T00:21:49.519Z,99799.22
2022-08-19T00:24:23.806Z,99797.66
2022-08-19T00:27:25.032Z,99787.97
2022-08-19T00:29:58.535Z,99785.41
2022-08-19T00:32:32.292Z,99780.47
2022-08-19T00:35:11.851Z,99771.78
2022-08-19T00:37:45.962Z,99773.81
2022-08-19T00:40:21.281Z,99777.56
2022-08-19T00:42:55.366Z,99777.91
2022-08-19T00:45:36.550Z,99767.34
2022-08-19T00:48:14.696Z,99772.78
2022-08-19T00:50:52.522Z,99765.78
2022-08-19T00:53:31.962Z,99766.13
2022-08-19T00:56:09.926Z,99762.72
2022-08-19T00:58:43.750Z,99760.34
2022-08-19T01:01:19.020Z,99755.22
2022-08-19T01:03:57.691Z,99769.00
2022-08-19T01:06:33.645Z,99763.22
2022-08-19T01:09:07.541Z,99766.28
2022-08-19T01:11:46.944Z,99765.75
2022-08-19T01:14:21.738Z,99774.28
2022-08-19T01:16:58.460Z,99771.72
2022-08-19T01:19:43.847Z,99764.03
2022-08-19T01:22:30.116Z,99766.25
2022-08-19T01:25:14.837Z,99771.31
2022-08-19T01:27:53.341Z,99769.94
2022-08-19T01:30:34.372Z,99772.13
2022-08-19T01:33:08.277Z,99761.91
2022-08-19T01:35:45.791Z,99763.22
2022-08-19T01:38:25.898Z,99757.25
2022-08-19T01:41:02.061Z,99751.31
2022-08-19T01:44:03.847Z,99756.03
2022-08-19T01:46:39.338Z,99760.63
2022-08-19T01:49:13.512Z,99760.97
2022-08-19T01:51:48.033Z,99761.28
2022-08-19T01:54:27.476Z,99758.91
2022-08-19T01:57:10.986Z,99762.47
2022-08-19T01:59:47.248Z,99761.09
2022-08-19T02:02:24.266Z,99761.09
2022-08-19T02:04:57.871Z,99763.81
2022-08-19T02:07:31.673Z,99769.25
2022-08-19T02:10:12.308Z,99760.59
2022-08-19T02:12:47.885Z,99749.69
2022-08-19T02:15:23.015Z,99738.97
2022-08-19T02:17:56.586Z,99739.13
2022-08-19T02:20:30.107Z,99739.28
2022-08-19T02:23:03.715Z,99738.41
2022-08-19T02:25:37.338Z,99737.75
2022-08-19T02:28:14.591Z,99736.06
2022-08-19T02:30:51.586Z,99737.22
2022-08-19T02:33:25.236Z,99739.09
2022-08-19T02:35:58.815Z,99741.81
2022-08-19T02:38:32.399Z,99731.94
2022-08-19T02:41:08.354Z,99735.66
2022-08-19T02:44:14.292Z,99733.97
2022-08-19T02:46:37.841Z,99739.59
2022-08-19T02:49:11.649Z,99737.69
2022-08-19T02:51:46.997Z,99740.41
2022-08-19T02:54:20.997Z,99750.63
2022-08-19T02:56:54.597Z,99739.91
2022-08-19T02:59:32.363Z,99746.34
2022-08-19T03:02:06.076Z,99732.22
2022-08-19T03:04:39.678Z,99731.53
2022-08-19T03:07:15.911Z,99730.81
2022-08-19T03:09:49.597Z,99728.44
2022-08-19T03:12:23.096Z,99731.16
2022-08-19T03:14:58.164Z,99725.03
2022-08-19T03:17:31.741Z,99729.63
2022-08-19T03:20:06.688Z,99728.75
2022-08-19T03:22:40.267Z,99732.34
2022-08-19T03:25:14.162Z,99739.78
2022-08-19T03:27:52.646Z,99740.13
2022-08-19T03:30:27.627Z,99742.84
2022-08-19T03:33:01.263Z,99747.44
2022-08-19T03:35:37.781Z,99741.16
2022-08-19T03:38:11.438Z,99745.72
2022-08-19T03:40:45.065Z,99740.13
2022-08-19T03:43:19.390Z,99742.13
2022-08-19T03:46:05.706Z,99734.66
2022-08-19T03:48:40.761Z,99728.38
2022-08-19T03:51:19.275Z,99730.09
2022-08-19T03:54:06.693Z,99729.94
2022-08-19T03:56:42.358Z,99729.78
2022-08-19T03:59:20.228Z,99724.03
2022-08-19T04:01:55.643Z,99725.56
2022-08-19T04:04:29.988Z,99727.94
2022-08-19T04:07:05.849Z,99723.22
2022-08-19T04:09:40.018Z,99731.03
2022-08-19T04:12:13.615Z,99736.31
2022-08-19T04:14:47.451Z,99746.03
2022-08-19T04:17:22.769Z,99746.88
2022-08-19T04:19:56.436Z,99756.75
2022-08-19T04:22:30.049Z,99750.31
2022-08-19T04:25:03.966Z,99751.81
2022-08-19T04:27:37.660Z,99738.94
2022-08-19T04:30:12.481Z,99736.06
2022-08-19T04:32:47.567Z,99735.69
2022-08-19T04:35:24.816Z,99731.66
2022-08-19T04:37:58.647Z,99742.88
2022-08-19T04:40:49.600Z,99758.56
2022-08-19T04:43:23.215Z,99756.75
2022-08-19T04:46:00.835Z,99754.22
2022-08-19T04:48:37.088Z,99755.97
2022-08-19T04:51:18.255Z,99755.84
2022-08-19T04:53:52.516Z,99761.31
2022-08-19T04:56:27.743Z,99753.47
2022-08-19T04:59:04.500Z,99759.97
2022-08-19T05:01:38.530Z,99758.09
2022-08-19T05:04:14.170Z,99757.28
2022-08-19T05:06:48.320Z,99745.53
2022-08-19T05:09:22.768Z,99738.19
2022-08-19T05:11:56.328Z,99742.81
2022-08-19T05:14:30.350Z,99736.50
2022-08-19T05:17:26.205Z,99733.13
2022-08-19T05:20:15.910Z,99726.63
2022-08-19T05:22:50.014Z,99725.09
2022-08-19T05:25:26.436Z,99728.31
2022-08-19T05:28:00.078Z,99736.69
2022-08-19T05:30:46.932Z,99735.63
2022-08-19T05:33:21.602Z,99736.31
2022-08-19T05:35:57.188Z,99734.91
2022-08-19T05:38:31.239Z,99745.47
2022-08-19T05:41:09.598Z,99747.66
2022-08-19T05:43:43.611Z,99745.88
2022-08-19T05:46:27.718Z,99742.56
2022-08-19T05:49:02.038Z,99746.78
2022-08-19T05:51:38.392Z,99744.69
2022-08-19T05:54:14.549Z,99748.06
2022-08-19T05:56:49.015Z,99753.94
2022-08-19T05:59:24.888Z,99758.44
2022-08-19T06:01:59.398Z,99771.31
2022-08-19T06:04:33.092Z,99760.47
2022-08-19T06:07:20.935Z,99745.16
2022-08-19T06:09:59.975Z,99748.66
2022-08-19T06:12:36.125Z,99756.69
2022-08-19T06:15:12.725Z,99757.84
2022-08-19T06:17:46.729Z,99756.94
2022-08-19T06:20:39.839Z,99751.66
2022-08-19T06:23:16.287Z,99743.59
2022-08-19T06:25:50.842Z,99747.16
2022-08-19T06:28:24.825Z,99751.38
2022-08-19T06:30:58.447Z,99769.31
2022-08-19T06:33:32.058Z,99759.94
2022-08-19T06:36:06.653Z,99764.50
2022-08-19T06:38:41.629Z,99754.28
2022-08-19T06:41:15.330Z,99749.59
2022-08-19T06:43:50.005Z,99768.72
2022-08-19T06:46:28.383Z,99763.47
2022-08-19T06:49:02.798Z,99757.38
2022-08-19T06:51:36.713Z,99762.50
2022-08-19T06:54:20.000Z,99746.34
2022-08-19T06:56:54.400Z,99751.69
2022-08-19T06:59:29.337Z,99755.56
2022-08-19T07:02:06.710Z,99746.47
2022-08-19T07:04:42.675Z,99748.88
2022-08-19T07:07:20.032Z,99759.03
2022-08-19T07:09:59.102Z,99747.44
2022-08-19T07:12:36.116Z,99743.88
2022-08-19T07:15:13.049Z,99748.56
2022-08-19T07:17:47.995Z,99752.84
2022-08-19T07:20:28.479Z,99751.22
2022-08-19T07:23:02.454Z,99747.25
2022-08-19T07:25:42.791Z,99759.97
2022-08-19T07:28:24.182Z,99754.06
2022-08-19T07:30:58.181Z,99748.34
2022-08-19T07:33:34.037Z,99745.38
2022-08-19T07:36:09.374Z,99741.00
2022-08-19T07:38:48.279Z,99752.00
2022-08-19T07:41:26.441Z,99743.72
2022-08-19T07:44:05.418Z,99738.22
2022-08-19T07:46:40.953Z,99731.25
2022-08-19T07:49:18.542Z,99731.41
2022-08-19T07:51:55.202Z,99743.66
2022-08-19T07:54:31.433Z,99740.88
2022-08-19T07:57:07.088Z,99749.97
2022-08-19T07:59:40.990Z,99757.59
2022-08-19T08:02:14.653Z,99765.41
2022-08-19T08:05:07.600Z,99748.56
2022-08-19T08:07:58.314Z,99754.59
2022-08-19T08:10:32.123Z,99757.00
2022-08-19T08:13:09.932Z,99749.19
2022-08-19T08:15:45.783Z,99757.28
2022-08-19T08:18:19.947Z,99753.31
2022-08-19T08:20:53.545Z,99769.34
2022-08-19T08:23:27.581Z,99767.09
2022-08-19T08:26:01.449Z,99772.44
2022-08-19T08:28:38.727Z,99791.00
2022-08-19T08:31:12.381Z,99798.06
2022-08-19T08:33:46.198Z,99787.13
2022-08-19T08:36:19.955Z,99790.75
2022-08-19T08:41:42.864Z,99795.44
2022-08-19T08:44:23.616Z,99792.84
2022-08-19T08:47:01.432Z,99798.88
2022-08-19T08:49:43.651Z,99800.75
2022-08-19T08:52:23.535Z,99797.63
2022-08-19T08:55:01.669Z,99793.06
2022-08-19T08:57:42.460Z,99792.84
2022-08-19T09:00:22.046Z,99785.66
2022-08-19T09:02:56.102Z,99798.81
2022-08-19T09:05:55.448Z,99796.63
2022-08-19T09:08:41.784Z,99794.97
2022-08-19T09:11:42.905Z,99809.78
2022-08-19T09:14:49.828Z,99802.78
2022-08-19T09:17:32.211Z,99807.53
2022-08-19T09:20:16.214Z,99810.31
2022-08-19T09:22:50.823Z,99804.13
2022-08-19T09:25:27.018Z,99791.78
2022-08-19T09:28:05.640Z,99804.06
2022-08-19T09:30:46.433Z,99798.69
2022-08-19T09:33:21.511Z,99795.03
2022-08-19T09:36:08.652Z,99800.56
2022-08-19T09:38:43.670Z,99789.31
2022-08-19T09:41:20.745Z,99790.34
2022-08-19T09:43:57.313Z,99788.06
2022-08-19T09:46:37.435Z,99790.59
2022-08-19T09:49:12.408Z,99788.91
2022-08-19T09:51:57.179Z,99793.91
2022-08-19T09:54:30.941Z,99797.00
2022-08-19T09:57:07.792Z,99788.53
2022-08-19T09:59:45.463Z,99799.72
2022-08-19T10:02:22.145Z,99782.03
2022-08-19T10:05:14.666Z,99764.59
2022-08-19T10:07:56.851Z,99772.94
2022-08-19T10:10:30.614Z,99781.78
2022-08-19T10:13:07.881Z,99777.72
2022-08-19T10:15:45.085Z,99777.94
2022-08-19T10:18:25.288Z,99771.72
2022-08-19T10:21:11.634Z,99770.53
2022-08-19T10:23:47.328Z,99764.59
2022-08-19T10:26:22.815Z,99764.59
2022-08-19T10:29:00.458Z,99761.50
2022-08-19T10:31:59.970Z,99764.81
2022-08-19T10:34:31.666Z,99757.47
2022-08-19T10:37:09.484Z,99760.16
2022-08-19T10:39:44.600Z,99771.09
2022-08-19T10:42:19.741Z,99759.38
2022-08-19T10:44:53.563Z,99764.75
2022-08-19T10:47:31.721Z,99767.63
2022-08-19T10:50:28.452Z,99763.25
2022-08-19T10:53:09.674Z,99745.31
2022-08-19T10:56:00.805Z,99755.47
2022-08-19T10:58:34.666Z,99741.09
2022-08-19T11:01:08.347Z,99755.66
2022-08-19T11:03:42.064Z,99746.50
2022-08-19T11:06:15.665Z,99752.81
2022-08-19T11:08:50.822Z,99745.38
2022-08-19T11:11:24.755Z,99748.56
2022-08-19T11:13:58.953Z,99746.63
2022-08-19T11:16:32.979Z,99746.97
2022-08-19T11:19:06.618Z,99745.09
2022-08-19T11:21:43.443Z,99730.34
2022-08-19T11:24:21.314Z,99723.16
2022-08-19T11:27:00.141Z,99730.31
2022-08-19T11:29:35.594Z,99727.88
2022-08-19T11:32:11.944Z,99730.06
2022-08-19T11:34:45.639Z,99730.25
2022-08-19T11:37:19.265Z,99732.00
2022-08-19T11:39:54.755Z,99722.00
2022-08-19T11:42:45.443Z,99714.44
2022-08-19T11:45:19.190Z,99706.00
2022-08-19T11:47:52.892Z,99717.16
2022-08-19T11:50:27.121Z,99710.16
2022-08-19T11:53:01.276Z,99705.47
2022-08-19T11:55:44.056Z,99717.53
2022-08-19T11:58:19.779Z,99698.25
2022-08-19T12:00:53.698Z,99685.69
2022-08-19T12:03:27.464Z,99691.66
2022-08-19T12:06:01.214Z,99689.47
2022-08-19T12:08:34.913Z,99684.00
2022-08-19T12:11:10.201Z,99689.56
2022-08-19T12:13:45.419Z,99675.38
2022-08-19T12:16:21.580Z,99673.88
2022-08-19T12:18:56.973Z,99686.38
2022-08-19T12:21:30.713Z,99686.03
2022-08-19T12:24:06.823Z,99678.72
2022-08-19T12:26:53.113Z,99684.28
2022-08-19T12:29:30.867Z,99685.66
2022-08-19T12:32:05.324Z,99679.09
2022-08-19T12:34:39.357Z,99659.00
2022-08-19T12:37:13.405Z,99670.03
2022-08-19T12:39:47.446Z,99671.97
2022-08-19T12:42:23.720Z,99660.19
2022-08-19T12:44:57.447Z,99670.63
2022-08-19T12:47:31.547Z,99668.09
2022-08-19T12:50:09.663Z,99668.94
2022-08-19T12:52:54.587Z,99668.94
2022-08-19T12:55:29.379Z,99670.06
2022-08-19T12:58:04.604Z,99665.91
2022-08-19T13:00:38.346Z,99666.94
2022-08-19T13:03:11.996Z,99666.34
2022-08-19T13:05:45.590Z,99665.44
2022-08-19T13:08:19.350Z,99660.72
2022-08-19T13:10:53.108Z,99659.88
2022-08-19T13:13:28.285Z,99648.69
2022-08-19T13:16:04.702Z,99660.28
2022-08-19T13:18:38.532Z,99665.84
2022-08-19T13:21:14.321Z,99658.38
2022-08-19T13:23:48.370Z,99656.69
2022-08-19T13:26:22.468Z,99661.66
2022-08-19T13:29:14.871Z,99676.50
2022-08-19T13:32:06.069Z,99674.84
2022-08-19T13:34:40.541Z,99669.13
2022-08-19T13:37:14.189Z,99679.56
2022-08-19T13:39:48.520Z,99677.78
2022-08-19T13:42:22.406Z,99676.84
2022-08-19T13:44:57.629Z,99665.97
2022-08-19T13:47:31.234Z,99664.81
2022-08-19T13:50:05.651Z,99664.72
2022-08-19T13:52:39.535Z,99664.13
2022-08-19T13:55:14.864Z,99667.75
2022-08-19T13:57:57.632Z,99656.75
2022-08-19T14:00:36.383Z,99667.94
2022-08-19T14:03:10.163Z,99666.72
2022-08-19T14:05:43.950Z,99673.63
2022-08-19T14:08:17.751Z,99669.41
2022-08-19T14:10:51.631Z,99663.50
2022-08-19T14:13:26.029Z,99665.94
2022-08-19T14:16:01.221Z,99661.47
2022-08-19T14:18:34.797Z,99657.78
2022-08-19T14:21:09.097Z,99658.53
2022-08-19T14:23:42.808Z,99662.88
2022-08-19T14:26:19.751Z,99661.34
2022-08-19T14:28:53.980Z,99655.69
2022-08-19T14:31:30.980Z,99650.16
2022-08-19T14:34:05.172Z,99657.72
2022-08-19T14:36:39.463Z,99651.19
2022-08-19T14:39:13.380Z,99651.03
2022-08-19T14:41:47.377Z,99642.56
2022-08-19T14:44:21.050Z,99642.38
2022-08-19T14:46:56.056Z,99643.88
2022-08-19T14:49:35.280Z,99651.47
2022-08-19T14:52:16.018Z,99644.03
2022-08-19T14:54:49.755Z,99639.00
2022-08-19T14:57:23.522Z,99639.09
2022-08-19T14:59:58.298Z,99637.84
2022-08-19T15:02:35.213Z,99642.31
2022-08-19T15:05:10.108Z,99637.94
2022-08-19T15:07:45.761Z,99637.25
2022-08-19T15:10:19.607Z,99640.34
2022-08-19T15:12:54.667Z,99632.69
2022-08-19T15:15:28.909Z,99625.31
2022-08-19T15:18:05.015Z,99622.19
2022-08-19T15:20:39.451Z,99631.19
2022-08-19T15:23:15.963Z,99630.28
2022-08-19T15:25:53.277Z,99630.31
2022-08-19T15:28:28.483Z,99626.88
2022-08-19T15:31:02.258Z,99639.22
2022-08-19T15:33:38.701Z,99625.75
2022-08-19T15:36:13.168Z,99625.00
2022-08-19T15:38:52.292Z,99628.25
2022-08-19T15:41:37.120Z,99622.03
2022-08-19T15:44:13.397Z,99616.38
2022-08-19T15:46:48.773Z,99619.03
2022-08-19T15:49:23.951Z,99618.09
2022-08-19T15:52:00.309Z,99608.59
2022-08-19T15:54:33.965Z,99611.50
2022-08-19T15:57:25.716Z,99614.66
2022-08-19T16:00:19.147Z,99611.50
2022-08-19T16:03:22.029Z,99606.44
2022-08-19T16:06:14.198Z,99615.97
2022-08-19T16:08:49.512Z,99606.94
2022-08-19T16:11:29.325Z,99609.47
2022-08-19T16:14:04.216Z,99605.16
2022-08-19T16:16:39.645Z,99603.31
2022-08-19T16:19:15.732Z,99610.66
2022-08-19T16:21:53.802Z,99602.09
2022-08-19T16:24:29.832Z,99606.41
2022-08-19T16:27:03.575Z,99604.47
2022-08-19T16:29:39.456Z,99599.69
2022-08-19T16:32:14.253Z,99595.81
2022-08-19T16:34:48.617Z,99596.75
2022-08-19T16:37:23.710Z,99594.47
2022-08-19T16:39:57.328Z,99585.66
2022-08-19T16:42:31.247Z,99584.66
2022-08-19T16:45:05.606Z,99586.69
2022-08-19T16:47:39.249Z,99590.03
2022-08-19T16:50:12.888Z,99590.13
2022-08-19T16:52:47.965Z,99590.81
2022-08-19T16:55:21.602Z,99598.97
2022-08-19T16:57:55.206Z,99597.97
2022-08-19T17:00:28.984Z,99595.72
2022-08-19T17:03:07.198Z,99599.38
2022-08-19T17:05:44.334Z,99599.44
2022-08-19T17:08:20.548Z,99604.53
2022-08-19T17:11:17.115Z,99606.00
2022-08-19T17:13:51.044Z,99611.00
2022-08-19T17:16:27.505Z,99619.22
2022-08-19T17:19:03.171Z,99625.72
2022-08-19T17:21:39.515Z,99633.03
2022-08-19T17:24:14.444Z,99637.59
2022-08-19T17:26:48.017Z,99645.13
2022-08-19T17:29:21.582Z,99653.88
2022-08-19T17:31:55.232Z,99655.00
2022-08-19T17:34:29.236Z,99652.06
2022-08-19T17:37:02.811Z,99666.94
2022-08-19T17:39:39.900Z,99681.63
2022-08-19T17:42:13.727Z,99684.41
2022-08-19T17:44:50.764Z,99685.94
2022-08-19T17:47:24.730Z,99681.88
2022-08-19T17:49:58.380Z,99674.03
2022-08-19T17:52:31.923Z,99675.38
2022-08-19T17:55:10.469Z,99666.72
2022-08-19T17:57:46.784Z,99666.34
2022-08-19T18:00:21.298Z,99670.19
2022-08-19T18:02:57.410Z,99665.53
2022-08-19T18:05:37.028Z,99673.38
2022-08-19T18:08:11.438Z,99673.78
2022-08-19T18:10:46.537Z,99671.66
2022-08-19T18:13:20.148Z,99667.63
2022-08-19T18:15:53.714Z,99669.53
2022-08-19T18:18:28.536Z,99679.69
2022-08-19T18:21:02.261Z,99678.66
2022-08-19T18:23:41.348Z,99668.69
2022-08-19T18:26:20.648Z,99676.72
2022-08-19T18:28:55.053Z,99688.56
2022-08-19T18:31:29.322Z,99682.66
2022-08-19T18:34:03.029Z,99680.56
2022-08-19T18:36:53.031Z,99685.41
2022-08-19T18:39:45.208Z,99682.03
2022-08-19T18:42:37.853Z,99677.84
2022-08-19T18:45:29.665Z,99675.94
2022-08-19T18:48:27.491Z,99678.25
2022-08-19T18:51:06.510Z,99671.69
2022-08-19T18:53:42.231Z,99674.03
2022-08-19T18:56:19.366Z,99675.31
2022-08-19T18:58:54.737Z,99679.75
2022-08-19T19:01:31.034Z,99679.34
2022-08-19T19:04:11.840Z,99679.78
2022-08-19T19:06:45.431Z,99687.63
2022-08-19T19:09:21.702Z,99691.22
2022-08-19T19:11:58.071Z,99693.38
2022-08-19T19:14:49.056Z,99681.06
2022-08-19T19:17:28.153Z,99686.59
2022-08-19T19:20:03.206Z,99692.28
2022-08-19T19:22:36.874Z,99686.13
2022-08-19T19:25:11.562Z,99683.16
2022-08-19T19:27:45.353Z,99676.38
2022-08-19T19:30:24.718Z,99684.00
2022-08-19T19:32:59.224Z,99671.91
2022-08-19T19:35:33.473Z,99662.13
2022-08-19T19:38:06.977Z,99670.38
2022-08-19T19:40:40.472Z,99673.09
2022-08-19T19:43:18.518Z,99682.59
2022-08-19T19:45:53.487Z,99662.31
2022-08-19T19:48:28.960Z,99668.41
2022-08-19T19:51:03.082Z,99664.38
2022-08-19T19:53:36.621Z,99671.31
2022-08-19T19:56:10.360Z,99680.63
2022-08-19T19:58:43.926Z,99683.97
2022-08-19T20:01:21.759Z,99682.88
2022-08-19T20:04:01.600Z,99691.06
2022-08-19T20:06:35.147Z,99693.56
2022-08-19T20:09:08.251Z,99701.97
2022-08-19T20:11:43.976Z,99716.31
2022-08-19T20:14:22.442Z,99726.81
2022-08-19T20:16:58.455Z,99728.09
2022-08-19T20:19:37.321Z,99723.66
2022-08-19T20:22:11.340Z,99734.19
2022-08-19T20:24:45.047Z,99737.13
2022-08-19T20:27:23.010Z,99735.44
2022-08-19T20:29:59.404Z,99737.34
2022-08-19T20:32:34.408Z,99741.13
2022-08-19T20:35:09.240Z,99726.56
2022-08-19T20:37:42.776Z,99733.28
2022-08-19T20:40:21.824Z,99735.19
2022-08-19T20:42:57.818Z,99729.69
2022-08-19T20:45:34.077Z,99727.53
2022-08-19T20:48:10.743Z,99723.97
2022-08-19T20:50:44.712Z,99729.84
2022-08-19T20:53:19.850Z,99731.28
2022-08-19T20:55:53.473Z,99720.50
2022-08-19T20:58:33.480Z,99727.06
2022-08-19T21:01:10.741Z,99723.00
2022-08-19T21:03:46.052Z,99722.97
2022-08-19T21:06:19.760Z,99733.25
2022-08-19T21:08:58.057Z,99727.97
2022-08-19T21:11:32.477Z,99726.66
2022-08-19T21:14:06.007Z,99728.94
2022-08-19T21:16:39.740Z,99728.03
2022-08-19T21:19:14.727Z,99734.97
2022-08-19T21:21:48.426Z,99729.88
2022-08-19T21:24:22.179Z,99735.56
2022-08-19T21:27:03.450Z,99739.34
2022-08-19T21:29:40.308Z,99750.97
2022-08-19T21:32:13.973Z,99752.28
2022-08-19T21:34:49.459Z,99751.44
2022-08-19T21:37:25.055Z,99755.22
2022-08-19T21:39:59.512Z,99765.72
2022-08-19T21:42:33.079Z,99818.41
2022-08-19T21:45:08.155Z,99807.84
2022-08-19T21:47:41.758Z,99774.47
2022-08-19T21:50:16.938Z,99787.75
2022-08-19T21:52:50.498Z,99801.84
2022-08-19T21:55:24.400Z,99801.34
2022-08-19T21:58:00.197Z,99791.25
2022-08-19T22:00:34.751Z,99798.16
2022-08-19T22:03:08.478Z,99796.25
2022-08-19T22:05:43.848Z,99802.78
2022-08-19T22:08:17.514Z,99801.28
2022-08-19T22:10:51.435Z,99809.50
2022-08-19T22:13:26.409Z,99814.72
2022-08-19T22:16:00.047Z,99819.63
2022-08-19T22:18:35.509Z,99820.09
2022-08-19T22:21:12.132Z,99818.16
2022-08-19T22:23:46.023Z,99806.13
2022-08-19T22:26:19.944Z,99810.38
2022-08-19T22:28:54.113Z,99808.47
2022-08-19T22:31:28.752Z,99811.22
2022-08-19T22:34:03.850Z,99801.31
2022-08-19T22:36:38.937Z,99799.44
2022-08-19T22:39:12.588Z,99806.81
2022-08-19T22:41:46.251Z,99809.53
2022-08-19T22:44:20.613Z,99804.06
2022-08-19T22:46:54.219Z,99813.97
2022-08-19T22:49:27.938Z,99811.41
2022-08-19T22:52:22.183Z,99808.22
2022-08-19T22:55:00.756Z,99801.03
2022-08-19T22:57:34.387Z,99793.19
2022-08-19T23:00:11.918Z,99797.00
2022-08-19T23:02:52.312Z,99795.28
2022-08-19T23:05:28.885Z,99787.44
2022-08-19T23:08:04.169Z,99789.53
2022-08-19T23:10:37.831Z,99795.19
2022-08-19T23:13:12.200Z,99795.38
2022-08-19T23:15:47.532Z,99793.66
2022-08-19T23:18:21.418Z,99801.06
2022-08-19T23:20:55.179Z,99813.22
2022-08-19T23:23:30.151Z,99818.88
2022-08-19T23:26:04.014Z,99830.03
2022-08-19T23:28:54.635Z,99830.03
2022-08-19T23:31:29.518Z,99829.19
2022-08-19T23:34:03.514Z,99830.41
2022-08-19T23:36:37.087Z,99836.09
2022-08-19T23:39:12.057Z,99844.50
2022-08-19T23:41:45.663Z,99844.69
2022-08-19T23:44:19.269Z,99847.63
2022-08-19T23:46:55.098Z,99849.69
2022-08-19T23:49:29.135Z,99848.38
2022-08-19T23:52:05.707Z,99850.59
2022-08-19T23:54:43.005Z,99851.34
2022-08-19T23:57:17.486Z,99846.63
2022-08-19T23:59:51.058Z,99836.22
